createdAt,value
2022-08-03T00:00:58.115Z,13.39
2022-08-03T00:01:58.106Z,13.39
2022-08-03T00:02:58.156Z,13.11
2022-08-03T00:03:58.106Z,13.39
2022-08-03T00:04:58.103Z,12.94
2022-08-03T00:06:04.288Z,13.22
2022-08-03T00:06:58.109Z,13.11
2022-08-03T00:07:58.106Z,12.94
2022-08-03T00:08:58.105Z,13.39
2022-08-03T00:09:58.111Z,13.39
2022-08-03T00:10:58.100Z,13.22
2022-08-03T00:11:58.102Z,13.11
2022-08-03T00:12:58.108Z,13.39
2022-08-03T00:13:58.104Z,13.39
2022-08-03T00:14:58.114Z,13.22
2022-08-03T00:15:58.107Z,12.94
2022-08-03T00:16:58.108Z,13.39
2022-08-03T00:17:58.107Z,13.22
2022-08-03T00:18:58.112Z,13.39
2022-08-03T00:19:58.109Z,13.39
2022-08-03T00:20:58.117Z,13.39
2022-08-03T00:21:58.104Z,12.94
2022-08-03T00:22:58.114Z,13.22
2022-08-03T00:23:58.112Z,13.39
2022-08-03T00:24:58.109Z,13.22
2022-08-03T00:25:58.115Z,13.39
2022-08-03T00:26:58.110Z,13.22
2022-08-03T00:27:58.108Z,13.22
2022-08-03T00:28:58.113Z,13.22
2022-08-03T00:29:59.747Z,13.39
2022-08-03T00:30:58.114Z,13.22
2022-08-03T00:31:59.633Z,12.94
2022-08-03T00:32:58.124Z,12.94
2022-08-03T00:33:59.092Z,13.11
2022-08-03T00:34:58.896Z,13.11
2022-08-03T00:35:58.115Z,12.94
2022-08-03T00:36:58.111Z,12.94
2022-08-03T00:37:58.109Z,13.39
2022-08-03T00:38:58.137Z,13.39
2022-08-03T00:39:58.868Z,13.39
2022-08-03T00:40:58.113Z,13.39
2022-08-03T00:41:58.128Z,13.22
2022-08-03T00:42:58.112Z,13.22
2022-08-03T00:43:58.112Z,13.22
2022-08-03T00:44:58.124Z,12.78
2022-08-03T00:45:58.118Z,12.94
2022-08-03T00:46:58.121Z,12.61
2022-08-03T00:47:58.119Z,12.61
2022-08-03T00:48:58.150Z,12.17
2022-08-03T00:49:58.118Z,12.61
2022-08-03T00:50:58.115Z,12.78
2022-08-03T00:51:58.121Z,12.78
2022-08-03T00:52:58.119Z,12.94
2022-08-03T00:53:58.108Z,12.94
2022-08-03T00:54:58.122Z,12.94
2022-08-03T00:55:58.122Z,12.78
2022-08-03T00:56:59.369Z,12.94
2022-08-03T00:57:58.117Z,12.5
2022-08-03T00:58:58.121Z,12.78
2022-08-03T00:59:58.125Z,12.78
2022-08-03T01:00:58.149Z,12.94
2022-08-03T01:01:58.117Z,12.94
2022-08-03T01:02:58.125Z,13.39
2022-08-03T01:03:58.118Z,13.22
2022-08-03T01:04:58.118Z,13.22
2022-08-03T01:05:58.129Z,13.39
2022-08-03T01:06:58.121Z,13.39
2022-08-03T01:07:58.127Z,13.39
2022-08-03T01:08:58.132Z,13.39
2022-08-03T01:09:58.121Z,13.22
2022-08-03T01:10:58.119Z,13.11
2022-08-03T01:12:00.430Z,13.11
2022-08-03T01:12:58.128Z,12.94
2022-08-03T01:14:01.785Z,12.94
2022-08-03T01:14:58.121Z,12.78
2022-08-03T01:15:58.118Z,12.78
2022-08-03T01:16:58.119Z,12.5
2022-08-03T01:17:58.117Z,12.61
2022-08-03T01:18:58.122Z,12.5
2022-08-03T01:19:58.130Z,12.5
2022-08-03T01:20:58.138Z,12.5
2022-08-03T01:21:58.124Z,12.61
2022-08-03T01:22:58.121Z,12.61
2022-08-03T01:23:58.122Z,12.61
2022-08-03T01:24:58.126Z,12.61
2022-08-03T01:25:58.123Z,12.61
2022-08-03T01:26:58.124Z,12.61
2022-08-03T01:27:58.124Z,12.5
2022-08-03T01:28:58.126Z,12.5
2022-08-03T01:29:58.123Z,12.61
2022-08-03T01:30:58.128Z,12.94
2022-08-03T01:32:52.019Z,12.94
2022-08-03T01:33:01.574Z,12.78
2022-08-03T01:33:58.133Z,12.94
2022-08-03T01:34:58.132Z,13.11
2022-08-03T01:35:58.138Z,12.94
2022-08-03T01:36:58.131Z,12.78
2022-08-03T01:37:58.133Z,13.11
2022-08-03T01:38:58.146Z,12.78
2022-08-03T01:39:58.148Z,12.78
2022-08-03T01:40:58.147Z,13.11
2022-08-03T01:41:58.155Z,13.11
2022-08-03T01:42:58.133Z,12.94
2022-08-03T01:44:28.738Z,12.5
2022-08-03T01:44:58.152Z,12.94
2022-08-03T01:45:58.147Z,12.78
2022-08-03T01:46:58.149Z,12.5
2022-08-03T01:47:58.145Z,12.61
2022-08-03T01:48:58.201Z,12.61
2022-08-03T01:49:58.150Z,12.5
2022-08-03T01:50:58.168Z,12.5
2022-08-03T01:52:02.937Z,12.5
2022-08-03T01:52:58.158Z,12.5
2022-08-03T01:53:58.157Z,12.61
2022-08-03T01:54:58.152Z,12.78
2022-08-03T01:55:58.153Z,12.5
2022-08-03T01:56:58.160Z,12.33
2022-08-03T01:58:04.544Z,12.94
2022-08-03T01:58:58.161Z,12.94
2022-08-03T01:59:58.160Z,12.78
2022-08-03T02:00:58.207Z,12.61
2022-08-03T02:02:15.698Z,12.78
2022-08-03T02:02:58.165Z,12.61
2022-08-03T02:03:59.636Z,12.78
2022-08-03T02:04:58.162Z,12.94
2022-08-03T02:06:18.094Z,12.94
2022-08-03T02:07:00.928Z,12.61
2022-08-03T02:07:58.163Z,12.61
2022-08-03T02:08:58.164Z,12.94
2022-08-03T02:09:58.164Z,12.89
2022-08-03T02:10:58.173Z,12.94
2022-08-03T02:11:58.174Z,12.78
2022-08-03T02:12:58.168Z,12.44
2022-08-03T02:13:58.168Z,12.61
2022-08-03T02:14:59.994Z,12.5
2022-08-03T02:15:58.185Z,12.5
2022-08-03T02:16:58.175Z,12.61
2022-08-03T02:17:58.182Z,12.5
2022-08-03T02:18:58.179Z,12.5
2022-08-03T02:19:58.172Z,12.5
2022-08-03T02:20:58.182Z,12.17
2022-08-03T02:22:00.987Z,12.17
2022-08-03T02:22:58.181Z,12.17
2022-08-03T02:23:58.186Z,12.33
2022-08-03T02:24:58.194Z,12.33
2022-08-03T02:25:58.193Z,12
2022-08-03T02:26:58.195Z,12.17
2022-08-03T02:27:58.196Z,12.17
2022-08-03T02:28:58.192Z,12
2022-08-03T02:29:58.201Z,11.94
2022-08-03T02:30:58.212Z,11.89
2022-08-03T02:31:58.197Z,12.17
2022-08-03T02:32:58.200Z,12
2022-08-03T02:33:58.202Z,12.28
2022-08-03T02:34:58.205Z,11.94
2022-08-03T02:35:58.200Z,12.33
2022-08-03T02:36:58.208Z,12.06
2022-08-03T02:37:58.202Z,12
2022-08-03T02:38:58.205Z,11.72
2022-08-03T02:39:58.198Z,11.89
2022-08-03T02:40:58.205Z,11.72
2022-08-03T02:41:58.205Z,11.94
2022-08-03T02:42:58.208Z,11.83
2022-08-03T02:44:05.804Z,11.89
2022-08-03T02:44:58.215Z,11.44
2022-08-03T02:45:58.215Z,12.11
2022-08-03T02:46:58.209Z,12.28
2022-08-03T02:47:58.215Z,12.28
2022-08-03T02:48:58.249Z,12.28
2022-08-03T02:49:58.239Z,12.11
2022-08-03T02:50:58.217Z,11.83
2022-08-03T02:51:58.216Z,11.83
2022-08-03T02:52:58.214Z,11.61
2022-08-03T02:53:58.219Z,11.72
2022-08-03T02:54:58.222Z,11.72
2022-08-03T02:55:58.223Z,11.61
2022-08-03T02:56:58.226Z,11.61
2022-08-03T02:58:00.919Z,11.83
2022-08-03T02:58:58.227Z,11.83
2022-08-03T02:59:58.220Z,12.06
2022-08-03T03:00:58.278Z,11.83
2022-08-03T03:01:58.230Z,12.11
2022-08-03T03:02:58.227Z,11.72
2022-08-03T03:03:58.233Z,12.11
2022-08-03T03:05:51.217Z,12.11
2022-08-03T03:05:59.870Z,11.83
2022-08-03T03:06:58.236Z,12.28
2022-08-03T03:07:58.246Z,11.83
2022-08-03T03:08:59.827Z,11.83
2022-08-03T03:09:58.236Z,11.83
2022-08-03T03:10:58.246Z,11.83
2022-08-03T03:11:58.236Z,11.83
2022-08-03T03:12:58.232Z,11.83
2022-08-03T03:13:58.232Z,11.72
2022-08-03T03:14:58.233Z,11.61
2022-08-03T03:15:58.239Z,11.72
2022-08-03T03:16:58.240Z,11.5
2022-08-03T03:17:58.241Z,11.44
2022-08-03T03:18:58.234Z,11.11
2022-08-03T03:19:58.246Z,11.44
2022-08-03T03:20:58.236Z,11.44
2022-08-03T03:21:58.242Z,11.44
2022-08-03T03:22:58.242Z,11.78
2022-08-03T03:23:58.244Z,11.11
2022-08-03T03:24:58.259Z,10.83
2022-08-03T03:25:58.246Z,11.44
2022-08-03T03:26:58.248Z,11.83
2022-08-03T03:27:58.252Z,11.72
2022-08-03T03:28:58.248Z,11.61
2022-08-03T03:29:58.257Z,11.44
2022-08-03T03:30:58.252Z,11.44
2022-08-03T03:31:58.248Z,11.28
2022-08-03T03:32:58.252Z,11.44
2022-08-03T03:33:58.257Z,11.28
2022-08-03T03:34:58.255Z,11.11
2022-08-03T03:35:58.259Z,11
2022-08-03T03:36:58.257Z,11.44
2022-08-03T03:37:58.273Z,11.11
2022-08-03T03:38:58.263Z,11
2022-08-03T03:39:58.257Z,11.28
2022-08-03T03:40:58.259Z,11.44
2022-08-03T03:41:58.258Z,11.44
2022-08-03T03:42:58.254Z,11.44
2022-08-03T03:43:58.255Z,11.28
2022-08-03T03:44:58.262Z,11.44
2022-08-03T03:45:58.264Z,11.72
2022-08-03T03:46:58.261Z,11.72
2022-08-03T03:47:58.268Z,11.72
2022-08-03T03:48:58.301Z,11.61
2022-08-03T03:49:58.260Z,11.44
2022-08-03T03:50:58.271Z,11.61
2022-08-03T03:51:58.272Z,11.72
2022-08-03T03:52:58.265Z,11.72
2022-08-03T03:53:58.275Z,11.61
2022-08-03T03:55:00.954Z,11.61
2022-08-03T03:55:59.700Z,11.72
2022-08-03T03:56:58.264Z,11.44
2022-08-03T03:57:58.274Z,11.61
2022-08-03T03:58:58.272Z,11.61
2022-08-03T03:59:58.267Z,11.44
2022-08-03T04:00:58.335Z,11.28
2022-08-03T04:01:59.053Z,11.44
2022-08-03T04:02:58.277Z,11.44
2022-08-03T04:03:58.273Z,11.28
2022-08-03T04:04:58.274Z,11.28
2022-08-03T04:05:58.283Z,11.44
2022-08-03T04:06:58.276Z,11.72
2022-08-03T04:07:58.282Z,11.83
2022-08-03T04:08:58.272Z,11.72
2022-08-03T04:09:59.798Z,11.72
2022-08-03T04:10:58.275Z,11.72
2022-08-03T04:11:58.277Z,11.44
2022-08-03T04:12:58.281Z,11.44
2022-08-03T04:14:01.758Z,11.44
2022-08-03T04:14:58.279Z,11.11
2022-08-03T04:15:58.285Z,11.44
2022-08-03T04:16:58.278Z,11.44
2022-08-03T04:17:58.273Z,11.44
2022-08-03T04:18:58.282Z,11.44
2022-08-03T04:19:58.286Z,11.61
2022-08-03T04:20:58.283Z,11.61
2022-08-03T04:21:58.278Z,11.83
2022-08-03T04:22:58.277Z,11.72
2022-08-03T04:23:58.279Z,11.61
2022-08-03T04:24:58.280Z,11.83
2022-08-03T04:25:58.283Z,11.72
2022-08-03T04:26:58.277Z,11.83
2022-08-03T04:28:07.883Z,11.72
2022-08-03T04:28:58.281Z,11.83
2022-08-03T04:29:58.275Z,11.44
2022-08-03T04:30:58.285Z,11.44
2022-08-03T04:31:58.286Z,11.44
2022-08-03T04:32:58.282Z,11.28
2022-08-03T04:33:58.288Z,11.44
2022-08-03T04:34:58.280Z,11.44
2022-08-03T04:35:58.547Z,11
2022-08-03T04:36:58.282Z,11.44
2022-08-03T04:37:58.292Z,11.44
2022-08-03T04:38:58.280Z,11.44
2022-08-03T04:39:58.306Z,11.44
2022-08-03T04:40:58.287Z,11.44
2022-08-03T04:42:04.520Z,11.61
2022-08-03T04:42:58.280Z,11.44
2022-08-03T04:43:58.282Z,11.83
2022-08-03T04:45:01.284Z,11.94
2022-08-03T04:45:58.290Z,11.83
2022-08-03T04:46:58.283Z,11.83
2022-08-03T04:47:58.287Z,11.94
2022-08-03T04:48:58.334Z,11.94
2022-08-03T04:49:58.284Z,11.94
2022-08-03T04:50:58.282Z,12.11
2022-08-03T04:51:58.290Z,11.94
2022-08-03T04:52:58.286Z,12.11
2022-08-03T04:53:58.332Z,12.28
2022-08-03T04:54:58.289Z,12.28
2022-08-03T04:55:58.292Z,12.11
2022-08-03T04:56:58.289Z,12.11
2022-08-03T04:57:58.288Z,12.11
2022-08-03T04:58:58.292Z,12.44
2022-08-03T05:00:02.898Z,12.28
2022-08-03T05:00:58.290Z,12.28
2022-08-03T05:01:58.329Z,12.44
2022-08-03T05:02:58.290Z,12.44
2022-08-03T05:03:58.288Z,12.72
2022-08-03T05:04:58.299Z,13.06
2022-08-03T05:06:02.047Z,12.56
2022-08-03T05:06:58.296Z,12.72
2022-08-03T05:07:58.286Z,13.17
2022-08-03T05:08:58.291Z,13.67
2022-08-03T05:10:01.918Z,13.67
2022-08-03T05:10:58.953Z,13.06
2022-08-03T05:11:58.291Z,12.89
2022-08-03T05:12:58.286Z,12.56
2022-08-03T05:13:58.293Z,12.89
2022-08-03T05:14:58.302Z,13.5
2022-08-03T05:15:58.292Z,14.28
2022-08-03T05:16:58.291Z,14.06
2022-08-03T05:17:58.298Z,14.06
2022-08-03T05:18:58.303Z,14.28
2022-08-03T05:19:58.300Z,14.06
2022-08-03T05:20:58.299Z,14.39
2022-08-03T05:21:58.308Z,15.39
2022-08-03T05:22:58.311Z,16.39
2022-08-03T05:23:58.312Z,16.67
2022-08-03T05:24:58.310Z,16.67
2022-08-03T05:25:58.313Z,17
2022-08-03T05:26:58.310Z,17.78
2022-08-03T05:27:58.315Z,18.11
2022-08-03T05:28:58.318Z,19.39
2022-08-03T05:30:26.415Z,19.72
2022-08-03T05:30:58.316Z,20.72
2022-08-03T05:31:58.317Z,21.17
2022-08-03T05:32:58.319Z,21
2022-08-03T05:33:58.312Z,20.83
2022-08-03T05:34:58.323Z,21.89
2022-08-03T05:36:02.853Z,21
2022-08-03T05:36:58.327Z,20.5
2022-08-03T05:37:58.565Z,21.17
2022-08-03T05:39:02.289Z,21.72
2022-08-03T05:39:58.338Z,21.5
2022-08-03T05:41:23.069Z,21.17
2022-08-03T05:41:58.326Z,21.72
2022-08-03T05:42:58.331Z,21.5
2022-08-03T05:43:58.336Z,21.17
2022-08-03T05:44:58.333Z,21.72
2022-08-03T05:46:11.514Z,21.5
2022-08-03T05:46:58.339Z,21.17
2022-08-03T05:47:58.331Z,22.56
2022-08-03T05:48:58.430Z,23.11
2022-08-03T05:49:58.348Z,22.78
2022-08-03T05:50:58.346Z,22.78
2022-08-03T05:51:59.861Z,23.44
2022-08-03T05:52:58.344Z,23.44
2022-08-03T05:53:58.340Z,22.56
2022-08-03T05:54:58.339Z,21.72
2022-08-03T05:56:02.458Z,22.06
2022-08-03T05:56:58.336Z,21.72
2022-08-03T05:57:58.350Z,22.06
2022-08-03T05:59:04.212Z,22.22
2022-08-03T05:59:58.960Z,23.11
2022-08-03T06:00:58.351Z,21.89
2022-08-03T06:01:58.439Z,21.39
2022-08-03T06:02:58.358Z,21.17
2022-08-03T06:03:58.350Z,21
2022-08-03T06:04:58.352Z,21.72
2022-08-03T06:06:00.142Z,21.72
2022-08-03T06:06:58.353Z,21
2022-08-03T06:07:58.364Z,20.83
2022-08-03T06:08:58.358Z,21.72
2022-08-03T06:10:35.155Z,21.72
2022-08-03T06:10:58.364Z,21.72
2022-08-03T06:11:58.354Z,21.17
2022-08-03T06:12:58.363Z,21.17
2022-08-03T06:13:58.372Z,21.17
2022-08-03T06:14:58.366Z,22.56
2022-08-03T06:15:58.356Z,23.67
2022-08-03T06:16:58.367Z,24.17
2022-08-03T06:18:01.547Z,24.39
2022-08-03T06:18:58.366Z,24.39
2022-08-03T06:19:58.368Z,24.17
2022-08-03T06:20:58.369Z,22.94
2022-08-03T06:21:58.365Z,23.44
2022-08-03T06:22:59.968Z,23.44
2022-08-03T06:23:58.375Z,23.83
2022-08-03T06:24:58.366Z,24.56
2022-08-03T06:25:58.381Z,24
2022-08-03T06:26:58.371Z,23.28
2022-08-03T06:27:58.379Z,23.67
2022-08-03T06:28:58.369Z,23.44
2022-08-03T06:29:58.372Z,23.28
2022-08-03T06:30:58.371Z,22.94
2022-08-03T06:31:58.373Z,23.44
2022-08-03T06:32:58.374Z,23.83
2022-08-03T06:34:32.030Z,22.78
2022-08-03T06:34:58.377Z,23.28
2022-08-03T06:35:58.375Z,24
2022-08-03T06:37:01.872Z,24.39
2022-08-03T06:37:58.385Z,23.83
2022-08-03T06:38:58.385Z,23.67
2022-08-03T06:39:58.388Z,22.78
2022-08-03T06:40:58.382Z,23.83
2022-08-03T06:41:58.377Z,23.83
2022-08-03T06:42:58.377Z,23.83
2022-08-03T06:44:02.831Z,24.17
2022-08-03T06:44:58.384Z,24.39
2022-08-03T06:45:58.390Z,25.5
2022-08-03T06:46:58.398Z,25.5
2022-08-03T06:47:58.390Z,24.89
2022-08-03T06:48:58.446Z,24.39
2022-08-03T06:50:05.062Z,24.17
2022-08-03T06:50:58.396Z,24.89
2022-08-03T06:52:04.760Z,25.5
2022-08-03T06:52:58.390Z,25.5
2022-08-03T06:53:58.398Z,26.06
2022-08-03T06:54:58.403Z,25.22
2022-08-03T06:55:58.388Z,25.5
2022-08-03T06:56:58.391Z,24.89
2022-08-03T06:57:59.734Z,24.72
2022-08-03T06:58:58.404Z,24.39
2022-08-03T07:00:07.016Z,24.89
2022-08-03T07:00:58.456Z,24.89
2022-08-03T07:01:58.407Z,24.72
2022-08-03T07:02:58.702Z,25.78
2022-08-03T07:03:58.412Z,25.61
2022-08-03T07:04:58.401Z,24.56
2022-08-03T07:05:58.396Z,25.06
2022-08-03T07:06:58.406Z,25.5
2022-08-03T07:07:58.405Z,25.5
2022-08-03T07:08:59.622Z,25.22
2022-08-03T07:09:58.531Z,25.22
2022-08-03T07:10:58.407Z,25.78
2022-08-03T07:11:58.412Z,24.39
2022-08-03T07:12:58.410Z,24.56
2022-08-03T07:13:58.414Z,24.39
2022-08-03T07:15:01.095Z,25.5
2022-08-03T07:15:58.424Z,24.89
2022-08-03T07:16:58.413Z,23.83
2022-08-03T07:17:58.450Z,24
2022-08-03T07:18:58.415Z,23.83
2022-08-03T07:19:58.415Z,22.56
2022-08-03T07:20:58.413Z,22.22
2022-08-03T07:22:02.041Z,22.78
2022-08-03T07:22:58.421Z,22.78
2022-08-03T07:23:58.419Z,22.78
2022-08-03T07:24:58.430Z,22.56
2022-08-03T07:25:58.415Z,22.78
2022-08-03T07:26:58.423Z,23.28
2022-08-03T07:27:58.420Z,23.44
2022-08-03T07:28:58.422Z,24.72
2022-08-03T07:29:58.429Z,23.83
2022-08-03T07:30:58.424Z,24
2022-08-03T07:31:58.432Z,24.39
2022-08-03T07:32:58.430Z,23.67
2022-08-03T07:33:58.435Z,24.39
2022-08-03T07:35:00.777Z,25.5
2022-08-03T07:35:58.449Z,26.06
2022-08-03T07:36:58.435Z,26.89
2022-08-03T07:37:58.434Z,27
2022-08-03T07:38:58.434Z,26.61
2022-08-03T07:39:58.440Z,26.89
2022-08-03T07:40:58.440Z,26.61
2022-08-03T07:41:58.440Z,25.5
2022-08-03T07:42:58.440Z,24.72
2022-08-03T07:43:58.443Z,23.67
2022-08-03T07:44:58.446Z,23.67
2022-08-03T07:45:58.446Z,23.67
2022-08-03T07:46:58.452Z,23.28
2022-08-03T07:47:58.445Z,22.39
2022-08-03T07:48:58.497Z,22.56
2022-08-03T07:49:58.444Z,22.78
2022-08-03T07:50:58.448Z,22.39
2022-08-03T07:51:58.458Z,22.22
2022-08-03T07:52:58.451Z,22.22
2022-08-03T07:53:58.446Z,22.06
2022-08-03T07:54:58.447Z,22.39
2022-08-03T07:55:58.448Z,22.22
2022-08-03T07:56:58.448Z,22.06
2022-08-03T07:57:58.442Z,21.89
2022-08-03T07:58:58.459Z,21.72
2022-08-03T08:00:02.086Z,22.39
2022-08-03T08:00:58.464Z,22.39
2022-08-03T08:01:58.449Z,22.39
2022-08-03T08:02:58.453Z,22.39
2022-08-03T08:03:58.450Z,21.89
2022-08-03T08:05:02.238Z,21
2022-08-03T08:05:58.449Z,21
2022-08-03T08:06:58.469Z,21
2022-08-03T08:07:58.462Z,20.72
2022-08-03T08:08:58.454Z,21.89
2022-08-03T08:09:58.449Z,22.39
2022-08-03T08:10:58.854Z,21.89
2022-08-03T08:11:58.469Z,21.72
2022-08-03T08:12:58.454Z,22.39
2022-08-03T08:13:58.456Z,21.89
2022-08-03T08:14:58.461Z,22.06
2022-08-03T08:15:58.457Z,22.22
2022-08-03T08:16:58.456Z,22.22
2022-08-03T08:17:58.458Z,22.39
2022-08-03T08:18:58.447Z,22.56
2022-08-03T08:19:58.460Z,22.39
2022-08-03T08:20:58.452Z,22.06
2022-08-03T08:22:01.858Z,22.39
2022-08-03T08:22:58.456Z,22.22
2022-08-03T08:23:58.457Z,22.06
2022-08-03T08:24:58.476Z,21.89
2022-08-03T08:25:58.458Z,21.72
2022-08-03T08:26:58.456Z,21.89
2022-08-03T08:28:21.752Z,22.56
2022-08-03T08:28:58.466Z,21.89
2022-08-03T08:30:04.827Z,21.89
2022-08-03T08:30:58.456Z,22.22
2022-08-03T08:31:58.460Z,22.94
2022-08-03T08:32:58.459Z,22.94
2022-08-03T08:34:03.905Z,22.39
2022-08-03T08:34:58.468Z,22.39
2022-08-03T08:35:58.459Z,22.39
2022-08-03T08:36:58.459Z,22.22
2022-08-03T08:37:58.480Z,22.22
2022-08-03T08:38:58.468Z,21.56
2022-08-03T08:39:58.466Z,21.56
2022-08-03T08:40:58.460Z,22.22
2022-08-03T08:41:58.466Z,23.28
2022-08-03T08:42:59.235Z,23.28
2022-08-03T08:44:00.164Z,23.67
2022-08-03T08:44:58.469Z,23.83
2022-08-03T08:45:58.461Z,23.44
2022-08-03T08:46:58.467Z,22.78
2022-08-03T08:48:01.776Z,23.44
2022-08-03T08:48:58.526Z,23.28
2022-08-03T08:50:09.572Z,23.44
2022-08-03T08:50:58.461Z,23.11
2022-08-03T08:52:00.462Z,22.94
2022-08-03T08:52:58.470Z,23.44
2022-08-03T08:53:58.465Z,23.28
2022-08-03T08:55:00.092Z,23.44
2022-08-03T08:56:00.253Z,23.67
2022-08-03T08:56:58.466Z,22.78
2022-08-03T08:57:58.472Z,22.39
2022-08-03T08:58:58.465Z,23.11
2022-08-03T08:59:58.465Z,23.83
2022-08-03T09:00:58.518Z,24
2022-08-03T09:01:58.475Z,23.83
2022-08-03T09:02:58.462Z,24.17
2022-08-03T09:03:58.465Z,24.56
2022-08-03T09:04:58.468Z,25.06
2022-08-03T09:05:58.464Z,25.06
2022-08-03T09:07:17.921Z,25.06
2022-08-03T09:07:58.477Z,24.39
2022-08-03T09:08:58.466Z,25.06
2022-08-03T09:10:01.392Z,24.89
2022-08-03T09:10:58.459Z,24.72
2022-08-03T09:12:14.541Z,23.67
2022-08-03T09:12:58.483Z,24
2022-08-03T09:13:58.480Z,23.67
2022-08-03T09:15:15.080Z,23.28
2022-08-03T09:16:01.401Z,23.11
2022-08-03T09:16:58.474Z,22.94
2022-08-03T09:17:58.482Z,23.67
2022-08-03T09:18:58.482Z,24.33
2022-08-03T09:20:03.346Z,24.17
2022-08-03T09:20:59.717Z,24.33
2022-08-03T09:21:58.479Z,24.67
2022-08-03T09:22:58.480Z,24.17
2022-08-03T09:24:03.639Z,23.67
2022-08-03T09:25:14.941Z,23.67
2022-08-03T09:25:59.774Z,23.67
2022-08-03T09:26:58.483Z,23.83
2022-08-03T09:27:58.480Z,24
2022-08-03T09:29:03.997Z,24.17
2022-08-03T09:29:58.482Z,24.17
2022-08-03T09:30:58.487Z,24.89
2022-08-03T09:31:59.433Z,25.61
2022-08-03T09:32:58.493Z,25.22
2022-08-03T09:33:58.481Z,25.06
2022-08-03T09:34:58.497Z,25.22
2022-08-03T09:35:58.574Z,24.17
2022-08-03T09:36:58.494Z,24
2022-08-03T09:38:06.028Z,24.67
2022-08-03T09:38:58.495Z,25.22
2022-08-03T09:39:58.494Z,25.61
2022-08-03T09:40:59.773Z,25.61
2022-08-03T09:41:58.492Z,25.61
2022-08-03T09:42:58.495Z,25.22
2022-08-03T09:43:58.493Z,26.17
2022-08-03T09:44:58.501Z,26.33
2022-08-03T09:45:58.500Z,26.72
2022-08-03T09:46:58.510Z,26.17
2022-08-03T09:47:58.505Z,26.56
2022-08-03T09:48:58.582Z,26.17
2022-08-03T09:49:58.510Z,26.56
2022-08-03T09:51:12.690Z,26.56
2022-08-03T09:52:30.329Z,26.89
2022-08-03T09:52:58.510Z,26.72
2022-08-03T09:54:00.067Z,26.72
2022-08-03T09:54:58.515Z,25.78
2022-08-03T09:56:33.169Z,26.17
2022-08-03T09:56:58.518Z,26.33
2022-08-03T09:57:58.521Z,26.33
2022-08-03T09:58:58.527Z,25.78
2022-08-03T10:00:03.182Z,25.44
2022-08-03T10:00:58.588Z,25.22
2022-08-03T10:01:58.520Z,25.22
2022-08-03T10:02:58.528Z,24.89
2022-08-03T10:04:03.653Z,25.44
2022-08-03T10:04:58.529Z,25.44
2022-08-03T10:05:59.904Z,26.17
2022-08-03T10:06:58.528Z,27.44
2022-08-03T10:07:58.528Z,27.44
2022-08-03T10:08:58.528Z,27.56
2022-08-03T10:09:58.517Z,28
2022-08-03T10:10:58.604Z,27.44
2022-08-03T10:11:58.519Z,27.44
2022-08-03T10:12:58.526Z,26.89
2022-08-03T10:14:01.383Z,25.78
2022-08-03T10:14:58.531Z,25.78
2022-08-03T10:16:20.999Z,25.78
2022-08-03T10:16:58.533Z,25.61
2022-08-03T10:17:58.538Z,26.33
2022-08-03T10:18:58.528Z,26.56
2022-08-03T10:19:58.539Z,26.89
2022-08-03T10:20:58.535Z,27.44
2022-08-03T10:21:58.536Z,27.78
2022-08-03T10:22:58.551Z,27.78
2022-08-03T10:23:58.531Z,28
2022-08-03T10:24:58.533Z,27.78
2022-08-03T10:25:58.538Z,26.89
2022-08-03T10:26:58.541Z,26.17
2022-08-03T10:27:58.533Z,25.78
2022-08-03T10:28:58.540Z,26.89
2022-08-03T10:29:58.540Z,27.17
2022-08-03T10:30:58.540Z,27.44
2022-08-03T10:31:58.856Z,28.39
2022-08-03T10:32:58.541Z,28.17
2022-08-03T10:33:58.539Z,29.11
2022-08-03T10:34:59.185Z,28.94
2022-08-03T10:35:58.546Z,29.11
2022-08-03T10:36:58.558Z,28.94
2022-08-03T10:37:58.738Z,28.94
2022-08-03T10:38:58.552Z,28.94
2022-08-03T10:39:58.550Z,28.17
2022-08-03T10:40:59.160Z,28
2022-08-03T10:41:58.559Z,27.56
2022-08-03T10:42:58.557Z,27.78
2022-08-03T10:43:58.558Z,28
2022-08-03T10:44:58.553Z,28
2022-08-03T10:45:58.554Z,28
2022-08-03T10:46:58.562Z,28.17
2022-08-03T10:47:58.552Z,27.56
2022-08-03T10:48:58.615Z,28.44
2022-08-03T10:49:58.577Z,29.11
2022-08-03T10:50:58.563Z,28.56
2022-08-03T10:51:58.561Z,28.56
2022-08-03T10:52:58.569Z,29.33
2022-08-03T10:53:58.555Z,29.17
2022-08-03T10:54:58.565Z,28.72
2022-08-03T10:55:58.560Z,29.17
2022-08-03T10:56:58.570Z,29.17
2022-08-03T10:57:59.143Z,29.33
2022-08-03T10:58:58.572Z,28.56
2022-08-03T10:59:58.573Z,29.17
2022-08-03T11:00:58.640Z,29.5
2022-08-03T11:02:00.916Z,29.94
2022-08-03T11:02:58.584Z,29.72
2022-08-03T11:03:58.571Z,29.72
2022-08-03T11:04:58.582Z,29.94
2022-08-03T11:05:58.568Z,29.5
2022-08-03T11:06:58.581Z,29.72
2022-08-03T11:07:58.578Z,29.72
2022-08-03T11:08:58.581Z,29.17
2022-08-03T11:09:58.588Z,28.72
2022-08-03T11:10:58.587Z,28.72
2022-08-03T11:11:58.581Z,28.33
2022-08-03T11:12:58.580Z,29.17
2022-08-03T11:13:58.577Z,29.33
2022-08-03T11:14:58.584Z,28.72
2022-08-03T11:16:00.194Z,28.72
2022-08-03T11:16:58.581Z,28.56
2022-08-03T11:17:58.585Z,29.72
2022-08-03T11:18:58.590Z,30.17
2022-08-03T11:19:58.840Z,30.33
2022-08-03T11:20:58.588Z,29.94
2022-08-03T11:21:58.588Z,29.33
2022-08-03T11:22:58.589Z,29.33
2022-08-03T11:24:03.687Z,29.5
2022-08-03T11:24:58.591Z,29.72
2022-08-03T11:25:58.594Z,29.17
2022-08-03T11:27:00.149Z,28.33
2022-08-03T11:27:58.595Z,29.17
2022-08-03T11:28:58.596Z,29.94
2022-08-03T11:29:58.597Z,29.94
2022-08-03T11:30:58.592Z,30.17
2022-08-03T11:31:58.619Z,29.5
2022-08-03T11:32:58.601Z,28.94
2022-08-03T11:33:58.601Z,29.33
2022-08-03T11:34:58.598Z,29.72
2022-08-03T11:35:58.608Z,30.17
2022-08-03T11:36:58.610Z,29.94
2022-08-03T11:38:01.741Z,30.17
2022-08-03T11:38:58.605Z,29.33
2022-08-03T11:39:58.617Z,29.33
2022-08-03T11:40:58.610Z,29.33
2022-08-03T11:41:58.605Z,28.72
2022-08-03T11:42:58.622Z,29.33
2022-08-03T11:43:58.610Z,29.33
2022-08-03T11:44:58.612Z,29.33
2022-08-03T11:45:58.627Z,29.33
2022-08-03T11:46:58.621Z,29.33
2022-08-03T11:47:58.607Z,30.17
2022-08-03T11:48:58.645Z,30.56
2022-08-03T11:49:58.605Z,29.94
2022-08-03T11:50:58.630Z,29.94
2022-08-03T11:51:58.625Z,29.94
2022-08-03T11:52:58.627Z,30.56
2022-08-03T11:53:58.622Z,30.56
2022-08-03T11:54:58.630Z,30.56
2022-08-03T11:55:58.622Z,30.78
2022-08-03T11:56:58.629Z,31.17
2022-08-03T11:58:57.406Z,31.17
2022-08-03T11:59:19.618Z,31.33
2022-08-03T11:59:58.625Z,31.17
2022-08-03T12:00:58.626Z,30.94
2022-08-03T12:01:58.626Z,30.72
2022-08-03T12:02:58.686Z,30.28
2022-08-03T12:03:58.631Z,30.11
2022-08-03T12:04:58.633Z,30.72
2022-08-03T12:05:58.630Z,30.72
2022-08-03T12:06:58.637Z,30.72
2022-08-03T12:08:02.847Z,30.72
2022-08-03T12:08:58.637Z,30.72
2022-08-03T12:09:58.637Z,31.11
2022-08-03T12:10:58.652Z,31.33
2022-08-03T12:12:00.092Z,30.72
2022-08-03T12:12:58.656Z,30.72
2022-08-03T12:14:45.959Z,31.11
2022-08-03T12:14:58.640Z,30.72
2022-08-03T12:15:58.639Z,30.72
2022-08-03T12:16:58.645Z,30.72
2022-08-03T12:17:58.643Z,31.33
2022-08-03T12:18:58.641Z,30.72
2022-08-03T12:19:58.650Z,30.72
2022-08-03T12:20:58.648Z,30.11
2022-08-03T12:21:58.641Z,30.28
2022-08-03T12:22:58.648Z,30.72
2022-08-03T12:23:58.652Z,29.72
2022-08-03T12:24:58.649Z,29.5
2022-08-03T12:25:58.651Z,29.5
2022-08-03T12:26:59.923Z,30.11
2022-08-03T12:27:58.650Z,30.72
2022-08-03T12:28:58.677Z,31.11
2022-08-03T12:29:59.218Z,31.11
2022-08-03T12:30:58.665Z,31.94
2022-08-03T12:31:58.652Z,31.94
2022-08-03T12:32:58.655Z,31.94
2022-08-03T12:33:59.198Z,31.94
2022-08-03T12:34:59.960Z,32.17
2022-08-03T12:35:58.655Z,32.17
2022-08-03T12:36:58.669Z,32.17
2022-08-03T12:37:58.657Z,31.94
2022-08-03T12:38:58.666Z,31.72
2022-08-03T12:40:00.965Z,32.17
2022-08-03T12:40:58.662Z,31.94
2022-08-03T12:41:58.669Z,31.94
2022-08-03T12:42:58.669Z,31.94
2022-08-03T12:43:58.661Z,31.94
2022-08-03T12:44:58.658Z,31.94
2022-08-03T12:45:58.666Z,31.33
2022-08-03T12:46:58.668Z,31.72
2022-08-03T12:47:58.681Z,31.72
2022-08-03T12:48:58.691Z,30.72
2022-08-03T12:49:58.668Z,31.94
2022-08-03T12:50:58.675Z,31.94
2022-08-03T12:51:59.455Z,31.72
2022-08-03T12:52:58.674Z,31.94
2022-08-03T12:53:58.670Z,31.33
2022-08-03T12:54:58.671Z,31.11
2022-08-03T12:56:05.586Z,31.94
2022-08-03T12:56:58.670Z,31.5